Currently 51°F in San Jacinto, California, USA
51°F
51°F / 51°F
1 mph W
0.00"
Tuesday, January 21, 2020 12:16 AM PST

San Jacinto, California Weather Summary
Last 36 Hours

Temperature Winds Hourly Humidity Dewpoint
Time Report Norm Report Norm Max Gusts Precip. Rpt. Norm Rpt. Norm Pressure
1Tue 12:16 AM  50.9°F  47°F  1 mph W  1 mph  1 mph  0.00"  75%  72%  43°F  38°F  30.13"
3Tue 12:05 AM  50.9°F  47°F  calm  1 mph  1 mph  ----  73%  71%  42°F  38°F  30.13"
2Tue 12:00 AM  51.1°F  47°F  calm  1 mph  3 mph  0.00"  73%  72%  42°F  38°F  30.13"
Mon 11:00 PM  51.4°F  49°F  calm  1 mph  2 mph  0.00"  67%  69%  40°F  38°F  30.11"
Mon 10:00 PM  51.4°F  50°F  calm  1 mph  3 mph  0.00"  66%  66%  40°F  39°F  30.08"
Mon 09:00 PM  52.3°F  51°F  1 mph NE  1 mph  2 mph  0.00"  61%  64%  39°F  39°F  30.10"
Mon 08:00 PM  53.1°F  53°F  calm  1 mph  3 mph  0.00"  57%  60%  38°F  39°F  30.08"
Mon 07:00 PM  54.9°F  55°F  1 mph W  1 mph  1 mph  0.00"  59%  57%  40°F  40°F  30.09"
Mon 06:00 PM  56.5°F  58°F  calm  1 mph  3 mph  0.00"  55%  53%  40°F  40°F  30.06"
Mon 05:00 PM  58.6°F  61°F  calm  2 mph  6 mph  0.00"  43%  47%  35°F  40°F  30.07"
Mon 04:00 PM  60.1°F  64°F  calm  2 mph  7 mph  0.00"  36%  41%  32°F  39°F  30.06"
Mon 03:00 PM  61.3°F  65°F  calm  3 mph  6 mph  0.00"  39%  39%  35°F  38°F  30.08"
Mon 02:00 PM  61.2°F  64°F  1 mph W  3 mph  7 mph  0.00"  42%  40%  37°F  38°F  30.03"
Mon 01:00 PM  61.3°F  63°F  2 mph W  2 mph  7 mph  0.00"  40%  41%  36°F  38°F  30.03"
Mon 12:00 PM  60.6°F  62°F  2 mph S  2 mph  7 mph  0.00"  42%  44%  36°F  39°F  30.10"
Mon 11:00 AM  60.4°F  59°F  1 mph SW  2 mph  7 mph  0.00"  41%  49%  36°F  39°F  30.11"
Mon 10:00 AM  56.1°F  55°F  calm  1 mph  6 mph  0.00"  56%  57%  40°F  40°F  30.12"
Mon 09:00 AM  53.1°F  51°F  1 mph NE  1 mph  5 mph  0.00"  54%  66%  36°F  39°F  30.13"
Mon 08:00 AM  50.5°F  45°F  calm  1 mph  3 mph  0.00"  54%  75%  34°F  38°F  30.11"
Mon 07:00 AM  49.6°F  43°F  calm  1 mph  6 mph  0.00"  54%  78%  33°F  36°F  30.10"
Mon 06:00 AM  50.2°F  43°F  calm  1 mph  2 mph  0.00"  55%  79%  34°F  37°F  30.06"
Mon 05:00 AM  49.8°F  44°F  calm  1 mph  none  0.00"  58%  77%  35°F  37°F  30.05"
Mon 04:00 AM  51.4°F  44°F  calm  1 mph  2 mph  0.00"  51%  77%  33°F  37°F  30.08"
Mon 03:00 AM  52.0°F  45°F  calm  1 mph  none  0.00"  50%  75%  33°F  37°F  30.08"
Mon 02:00 AM  51.8°F  46°F  calm  1 mph  6 mph  0.00"  51%  74%  33°F  38°F  30.09"
Mon 01:00 AM  53.1°F  47°F  calm  1 mph  2 mph  0.00"  50%  73%  34°F  38°F  30.07"
Mon 12:00 AM  54.5°F  48°F  1 mph NE  1 mph  2 mph  0.00"  45%  71%  33°F  38°F  30.07"
Sun 11:00 PM  57.7°F  49°F  calm  1 mph  3 mph  0.00"  38%  69%  31°F  38°F  30.10"
Sun 10:00 PM  57.4°F  50°F  calm  1 mph  6 mph  0.00"  41%  66%  33°F  39°F  30.11"
Sun 09:00 PM  57.9°F  51°F  1 mph SE  1 mph  3 mph  0.00"  42%  64%  34°F  39°F  30.11"
Sun 08:00 PM  58.8°F  53°F  calm  1 mph  none  0.00"  42%  60%  35°F  39°F  30.08"
Sun 07:00 PM  62.4°F  55°F  calm  1 mph  3 mph  0.00"  35%  56%  33°F  40°F  30.10"
Sun 06:00 PM  65.1°F  58°F  calm  1 mph  3 mph  0.00"  34%  53%  35°F  40°F  30.09"
Sun 05:00 PM  67.1°F  61°F  2 mph SW  2 mph  8 mph  0.00"  29%  47%  33°F  40°F  30.08"
Sun 04:00 PM  72.3°F  64°F  calm  2 mph  1 mph  0.00"  20%  41%  27°F  39°F  30.06"
Sun 03:00 PM  74.7°F  65°F  calm  2 mph  3 mph  0.00"  18%  39%  27°F  39°F  30.07"
Sun 02:00 PM  75.9°F  64°F  calm  3 mph  7 mph  0.00"  18%  40%  28°F  38°F  30.07"
Sun 01:00 PM  74.7°F  64°F  2 mph W  2 mph  5 mph  0.00"  19%  41%  28°F  39°F  30.09"
Sun 12:00 PM  71.2°F  62°F  4 mph SW  2 mph  6 mph  0.00"  21%  45%  28°F  39°F  30.13"

  1. Current weather data. No green row appears if the current weather data is also the high or low for the current day.
  2. High temperature for the current day.
  3. Low temperature for the current day.

The San Jacinto, California weather pages are a service of WeatherCurrents. San Jacinto is located in the heart of the San Jacinto Valley, near Hemet, the Soboba Casino, and at the foot of the San Jacinto Mountains.
Copyright ©2020  WeatherCurrents. All rights reserved. - Submit questions and comments - Privacy Policy

This page automatically refreshes every 10 minutes.